Terminal Aerodrome Forecast
Issued by NWS Sterling, VA

Current Version | Previous Version | Graphics & Text | Print | Product List | Glossary On
Versions: 1 2 3 4 5 6 7 8 9 10 11 12 13 14 15 16 17 18 19 20 21 22
772
FTUS41 KLWX 252320
TAFDCA
TAF
KDCA 252320Z 2600/2624 19006KT P6SM FEW050 SCT200
     FM261200 27005KT P6SM FEW050 SCT200
     FM261400 33008G16KT P6SM FEW050 SCT200
     FM262300 36005KT P6SM FEW200=

USA.gov is the U.S. government's official web portal to all federal, state and local government web resources and services.